sensor_id;sensor_type;location;lat;lon;timestamp;P1;durP1;ratioP1;P2;durP2;ratioP2
27305;SDS011;14792;50.886;6.468;2023-02-26T00:01:33;8.13;;;1.62;;
27305;SDS011;14792;50.886;6.468;2023-02-26T00:04:35;6.65;;;2.10;;
27305;SDS011;14792;50.886;6.468;2023-02-26T00:07:37;11.18;;;1.62;;
27305;SDS011;14792;50.886;6.468;2023-02-26T00:10:38;8.45;;;2.05;;
27305;SDS011;14792;50.886;6.468;2023-02-26T00:13:40;7.20;;;1.75;;
27305;SDS011;14792;50.886;6.468;2023-02-26T00:16:41;11.30;;;1.92;;
27305;SDS011;14792;50.886;6.468;2023-02-26T00:19:43;10.60;;;1.72;;
27305;SDS011;14792;50.886;6.468;2023-02-26T00:22:44;8.73;;;1.90;;
27305;SDS011;14792;50.886;6.468;2023-02-26T00:25:46;9.38;;;1.80;;
27305;SDS011;14792;50.886;6.468;2023-02-26T00:28:48;8.95;;;1.70;;
27305;SDS011;14792;50.886;6.468;2023-02-26T00:31:49;10.32;;;2.08;;
27305;SDS011;14792;50.886;6.468;2023-02-26T00:34:51;12.07;;;2.25;;
27305;SDS011;14792;50.886;6.468;2023-02-26T00:37:57;7.85;;;2.17;;
27305;SDS011;14792;50.886;6.468;2023-02-26T00:41:06;7.35;;;2.30;;
27305;SDS011;14792;50.886;6.468;2023-02-26T00:44:07;11.22;;;2.98;;
27305;SDS011;14792;50.886;6.468;2023-02-26T00:47:13;9.25;;;2.25;;
27305;SDS011;14792;50.886;6.468;2023-02-26T00:50:18;8.05;;;2.30;;
27305;SDS011;14792;50.886;6.468;2023-02-26T00:53:22;10.70;;;2.15;;
27305;SDS011;14792;50.886;6.468;2023-02-26T00:56:22;13.80;;;2.35;;
27305;SDS011;14792;50.886;6.468;2023-02-26T00:59:24;11.43;;;2.30;;
27305;SDS011;14792;50.886;6.468;2023-02-26T01:02:25;10.32;;;2.40;;
27305;SDS011;14792;50.886;6.468;2023-02-26T01:05:27;9.20;;;2.65;;
27305;SDS011;14792;50.886;6.468;2023-02-26T01:08:38;10.78;;;2.62;;
27305;SDS011;14792;50.886;6.468;2023-02-26T01:11:37;10.85;;;2.22;;
27305;SDS011;14792;50.886;6.468;2023-02-26T01:14:39;13.48;;;3.10;;
27305;SDS011;14792;50.886;6.468;2023-02-26T01:20:53;14.13;;;2.58;;
27305;SDS011;14792;50.886;6.468;2023-02-26T01:23:54;8.95;;;2.30;;
27305;SDS011;14792;50.886;6.468;2023-02-26T01:26:56;10.95;;;2.80;;
27305;SDS011;14792;50.886;6.468;2023-02-26T01:29:58;10.40;;;2.55;;
27305;SDS011;14792;50.886;6.468;2023-02-26T01:36:22;15.83;;;3.30;;
27305;SDS011;14792;50.886;6.468;2023-02-26T01:39:25;19.05;;;3.02;;
27305;SDS011;14792;50.886;6.468;2023-02-26T01:42:25;15.95;;;3.02;;
27305;SDS011;14792;50.886;6.468;2023-02-26T01:45:31;17.62;;;2.83;;
27305;SDS011;14792;50.886;6.468;2023-02-26T01:48:38;10.15;;;2.52;;
27305;SDS011;14792;50.886;6.468;2023-02-26T01:51:52;13.25;;;3.08;;
27305;SDS011;14792;50.886;6.468;2023-02-26T01:54:52;15.78;;;3.27;;
27305;SDS011;14792;50.886;6.468;2023-02-26T01:57:54;12.98;;;3.10;;
27305;SDS011;14792;50.886;6.468;2023-02-26T02:00:55;11.48;;;3.22;;
27305;SDS011;14792;50.886;6.468;2023-02-26T02:03:57;16.07;;;3.22;;
27305;SDS011;14792;50.886;6.468;2023-02-26T02:06:59;10.23;;;2.52;;
27305;SDS011;14792;50.886;6.468;2023-02-26T02:10:00;17.92;;;3.45;;
27305;SDS011;14792;50.886;6.468;2023-02-26T02:13:07;16.12;;;3.05;;
27305;SDS011;14792;50.886;6.468;2023-02-26T02:16:20;12.95;;;2.72;;
27305;SDS011;14792;50.886;6.468;2023-02-26T02:22:47;11.68;;;2.80;;
27305;SDS011;14792;50.886;6.468;2023-02-26T02:35:43;13.15;;;3.27;;
27305;SDS011;14792;50.886;6.468;2023-02-26T02:38:48;13.18;;;2.95;;
27305;SDS011;14792;50.886;6.468;2023-02-26T02:41:58;13.93;;;2.90;;
27305;SDS011;14792;50.886;6.468;2023-02-26T02:45:04;14.13;;;2.98;;
27305;SDS011;14792;50.886;6.468;2023-02-26T02:48:25;6.78;;;2.87;;
27305;SDS011;14792;50.886;6.468;2023-02-26T02:51:05;14.95;;;3.10;;
27305;SDS011;14792;50.886;6.468;2023-02-26T02:54:12;13.43;;;3.70;;
27305;SDS011;14792;50.886;6.468;2023-02-26T03:00:20;14.95;;;3.72;;
27305;SDS011;14792;50.886;6.468;2023-02-26T03:06:44;15.40;;;3.15;;
27305;SDS011;14792;50.886;6.468;2023-02-26T03:09:46;9.28;;;3.10;;
27305;SDS011;14792;50.886;6.468;2023-02-26T03:12:47;10.20;;;3.00;;
27305;SDS011;14792;50.886;6.468;2023-02-26T03:16:00;9.80;;;2.35;;
27305;SDS011;14792;50.886;6.468;2023-02-26T03:19:04;8.93;;;2.85;;
27305;SDS011;14792;50.886;6.468;2023-02-26T03:22:23;12.25;;;2.62;;
27305;SDS011;14792;50.886;6.468;2023-02-26T03:25:43;10.20;;;2.83;;
27305;SDS011;14792;50.886;6.468;2023-02-26T03:29:04;10.48;;;2.92;;
27305;SDS011;14792;50.886;6.468;2023-02-26T03:31:57;11.55;;;2.95;;
27305;SDS011;14792;50.886;6.468;2023-02-26T03:34:51;6.75;;;2.10;;
27305;SDS011;14792;50.886;6.468;2023-02-26T03:37:51;12.70;;;2.40;;
27305;SDS011;14792;50.886;6.468;2023-02-26T03:40:56;6.95;;;2.52;;
27305;SDS011;14792;50.886;6.468;2023-02-26T03:44:00;15.40;;;2.52;;
27305;SDS011;14792;50.886;6.468;2023-02-26T03:47:02;11.45;;;2.00;;
27305;SDS011;14792;50.886;6.468;2023-02-26T03:50:04;7.53;;;2.65;;
27305;SDS011;14792;50.886;6.468;2023-02-26T03:53:05;9.05;;;2.27;;
27305;SDS011;14792;50.886;6.468;2023-02-26T03:56:06;11.35;;;2.35;;
27305;SDS011;14792;50.886;6.468;2023-02-26T03:59:06;8.78;;;2.25;;
27305;SDS011;14792;50.886;6.468;2023-02-26T04:02:10;11.05;;;3.30;;
27305;SDS011;14792;50.886;6.468;2023-02-26T04:05:26;8.88;;;2.30;;
27305;SDS011;14792;50.886;6.468;2023-02-26T04:08:27;7.90;;;2.22;;
27305;SDS011;14792;50.886;6.468;2023-02-26T04:11:28;7.08;;;2.37;;
27305;SDS011;14792;50.886;6.468;2023-02-26T04:14:30;9.95;;;2.40;;
27305;SDS011;14792;50.886;6.468;2023-02-26T04:17:31;7.60;;;2.40;;
27305;SDS011;14792;50.886;6.468;2023-02-26T04:20:33;10.28;;;2.05;;
27305;SDS011;14792;50.886;6.468;2023-02-26T04:23:34;10.08;;;3.30;;
27305;SDS011;14792;50.886;6.468;2023-02-26T04:26:36;12.45;;;2.75;;
27305;SDS011;14792;50.886;6.468;2023-02-26T04:29:38;8.23;;;2.50;;
27305;SDS011;14792;50.886;6.468;2023-02-26T04:32:39;16.50;;;2.70;;
27305;SDS011;14792;50.886;6.468;2023-02-26T04:35:41;9.13;;;2.50;;
27305;SDS011;14792;50.886;6.468;2023-02-26T04:38:42;11.22;;;2.10;;
27305;SDS011;14792;50.886;6.468;2023-02-26T04:41:44;8.38;;;2.30;;
27305;SDS011;14792;50.886;6.468;2023-02-26T04:44:45;10.25;;;2.22;;
27305;SDS011;14792;50.886;6.468;2023-02-26T04:47:47;12.18;;;2.67;;
27305;SDS011;14792;50.886;6.468;2023-02-26T04:50:49;8.20;;;1.85;;
27305;SDS011;14792;50.886;6.468;2023-02-26T04:53:50;5.40;;;2.00;;
27305;SDS011;14792;50.886;6.468;2023-02-26T04:56:52;7.58;;;2.15;;
27305;SDS011;14792;50.886;6.468;2023-02-26T04:59:53;14.33;;;1.85;;
27305;SDS011;14792;50.886;6.468;2023-02-26T05:02:55;6.65;;;2.17;;
27305;SDS011;14792;50.886;6.468;2023-02-26T05:05:57;8.23;;;1.82;;
27305;SDS011;14792;50.886;6.468;2023-02-26T05:08:58;9.03;;;2.05;;
27305;SDS011;14792;50.886;6.468;2023-02-26T05:12:00;9.05;;;2.33;;
27305;SDS011;14792;50.886;6.468;2023-02-26T05:15:01;12.15;;;2.47;;
27305;SDS011;14792;50.886;6.468;2023-02-26T05:18:03;8.20;;;2.90;;
27305;SDS011;14792;50.886;6.468;2023-02-26T05:21:05;9.08;;;3.80;;
27305;SDS011;14792;50.886;6.468;2023-02-26T05:24:06;13.65;;;3.50;;
27305;SDS011;14792;50.886;6.468;2023-02-26T05:27:08;9.90;;;3.47;;
27305;SDS011;14792;50.886;6.468;2023-02-26T05:30:10;11.20;;;3.12;;
27305;SDS011;14792;50.886;6.468;2023-02-26T05:33:11;7.05;;;2.85;;
27305;SDS011;14792;50.886;6.468;2023-02-26T05:36:13;8.23;;;2.85;;
27305;SDS011;14792;50.886;6.468;2023-02-26T05:39:14;7.92;;;2.65;;
27305;SDS011;14792;50.886;6.468;2023-02-26T05:42:16;9.98;;;2.70;;
27305;SDS011;14792;50.886;6.468;2023-02-26T05:45:17;12.78;;;2.92;;
27305;SDS011;14792;50.886;6.468;2023-02-26T05:48:19;9.78;;;2.87;;
27305;SDS011;14792;50.886;6.468;2023-02-26T05:51:20;14.13;;;2.75;;
27305;SDS011;14792;50.886;6.468;2023-02-26T05:54:22;11.35;;;2.72;;
27305;SDS011;14792;50.886;6.468;2023-02-26T05:57:24;6.97;;;2.30;;
27305;SDS011;14792;50.886;6.468;2023-02-26T06:00:25;12.78;;;3.55;;
27305;SDS011;14792;50.886;6.468;2023-02-26T06:03:27;11.38;;;2.70;;
27305;SDS011;14792;50.886;6.468;2023-02-26T06:06:28;10.32;;;3.10;;
27305;SDS011;14792;50.886;6.468;2023-02-26T06:09:30;10.13;;;2.55;;
27305;SDS011;14792;50.886;6.468;2023-02-26T06:12:32;9.33;;;3.10;;
27305;SDS011;14792;50.886;6.468;2023-02-26T06:15:33;14.25;;;3.40;;
27305;SDS011;14792;50.886;6.468;2023-02-26T06:18:35;12.00;;;3.20;;
27305;SDS011;14792;50.886;6.468;2023-02-26T06:21:36;8.95;;;2.35;;
27305;SDS011;14792;50.886;6.468;2023-02-26T06:24:38;12.00;;;2.72;;
27305;SDS011;14792;50.886;6.468;2023-02-26T06:27:40;7.28;;;2.17;;
27305;SDS011;14792;50.886;6.468;2023-02-26T06:30:41;9.25;;;2.95;;
27305;SDS011;14792;50.886;6.468;2023-02-26T06:33:43;7.83;;;2.95;;
27305;SDS011;14792;50.886;6.468;2023-02-26T06:36:44;5.65;;;1.82;;
27305;SDS011;14792;50.886;6.468;2023-02-26T06:39:46;7.53;;;2.42;;
27305;SDS011;14792;50.886;6.468;2023-02-26T06:42:47;7.30;;;2.40;;
27305;SDS011;14792;50.886;6.468;2023-02-26T06:45:49;11.55;;;2.42;;
27305;SDS011;14792;50.886;6.468;2023-02-26T06:48:51;9.78;;;2.60;;
27305;SDS011;14792;50.886;6.468;2023-02-26T06:51:52;9.23;;;2.35;;
27305;SDS011;14792;50.886;6.468;2023-02-26T06:54:54;9.95;;;2.95;;
27305;SDS011;14792;50.886;6.468;2023-02-26T06:57:57;8.65;;;2.20;;
27305;SDS011;14792;50.886;6.468;2023-02-26T07:00:58;6.12;;;2.77;;
27305;SDS011;14792;50.886;6.468;2023-02-26T07:04:00;8.65;;;2.50;;
27305;SDS011;14792;50.886;6.468;2023-02-26T07:07:01;9.25;;;2.40;;
27305;SDS011;14792;50.886;6.468;2023-02-26T07:10:03;9.13;;;2.42;;
27305;SDS011;14792;50.886;6.468;2023-02-26T07:13:05;8.38;;;2.45;;
27305;SDS011;14792;50.886;6.468;2023-02-26T07:16:06;6.47;;;2.15;;
27305;SDS011;14792;50.886;6.468;2023-02-26T07:19:08;10.80;;;2.30;;
27305;SDS011;14792;50.886;6.468;2023-02-26T07:22:09;10.48;;;2.47;;
27305;SDS011;14792;50.886;6.468;2023-02-26T07:25:11;7.03;;;2.30;;
27305;SDS011;14792;50.886;6.468;2023-02-26T07:28:13;8.25;;;2.42;;
27305;SDS011;14792;50.886;6.468;2023-02-26T07:31:14;10.13;;;2.30;;
27305;SDS011;14792;50.886;6.468;2023-02-26T07:34:16;7.08;;;2.80;;
27305;SDS011;14792;50.886;6.468;2023-02-26T07:37:17;5.17;;;2.05;;
27305;SDS011;14792;50.886;6.468;2023-02-26T07:40:19;6.78;;;2.10;;
27305;SDS011;14792;50.886;6.468;2023-02-26T07:43:21;7.75;;;2.20;;
27305;SDS011;14792;50.886;6.468;2023-02-26T07:46:22;6.20;;;2.08;;
27305;SDS011;14792;50.886;6.468;2023-02-26T07:49:24;12.13;;;2.33;;
27305;SDS011;14792;50.886;6.468;2023-02-26T07:52:25;7.78;;;1.90;;
27305;SDS011;14792;50.886;6.468;2023-02-26T07:55:27;8.88;;;2.02;;
27305;SDS011;14792;50.886;6.468;2023-02-26T07:58:28;6.70;;;2.00;;
27305;SDS011;14792;50.886;6.468;2023-02-26T08:01:30;10.72;;;2.22;;
27305;SDS011;14792;50.886;6.468;2023-02-26T08:04:32;8.08;;;1.77;;
27305;SDS011;14792;50.886;6.468;2023-02-26T08:07:33;6.62;;;1.82;;
27305;SDS011;14792;50.886;6.468;2023-02-26T08:10:35;9.00;;;2.02;;
27305;SDS011;14792;50.886;6.468;2023-02-26T08:13:36;8.78;;;2.62;;
27305;SDS011;14792;50.886;6.468;2023-02-26T08:16:38;10.30;;;1.77;;
27305;SDS011;14792;50.886;6.468;2023-02-26T08:19:39;12.98;;;2.10;;
27305;SDS011;14792;50.886;6.468;2023-02-26T08:22:42;9.98;;;1.98;;
27305;SDS011;14792;50.886;6.468;2023-02-26T08:25:44;7.17;;;2.00;;
27305;SDS011;14792;50.886;6.468;2023-02-26T08:28:46;12.37;;;2.05;;
27305;SDS011;14792;50.886;6.468;2023-02-26T08:31:47;6.45;;;2.00;;
27305;SDS011;14792;50.886;6.468;2023-02-26T08:34:49;4.78;;;1.55;;
27305;SDS011;14792;50.886;6.468;2023-02-26T08:37:50;11.83;;;1.85;;
27305;SDS011;14792;50.886;6.468;2023-02-26T08:40:52;6.30;;;1.70;;
27305;SDS011;14792;50.886;6.468;2023-02-26T08:43:53;9.25;;;2.08;;
27305;SDS011;14792;50.886;6.468;2023-02-26T08:46:55;10.63;;;1.67;;
27305;SDS011;14792;50.886;6.468;2023-02-26T08:49:57;4.53;;;1.70;;
27305;SDS011;14792;50.886;6.468;2023-02-26T08:52:58;6.60;;;2.22;;
27305;SDS011;14792;50.886;6.468;2023-02-26T08:56:00;9.18;;;2.58;;
27305;SDS011;14792;50.886;6.468;2023-02-26T08:59:01;7.35;;;2.30;;
27305;SDS011;14792;50.886;6.468;2023-02-26T09:02:03;6.97;;;1.67;;
27305;SDS011;14792;50.886;6.468;2023-02-26T09:05:05;4.45;;;1.95;;
27305;SDS011;14792;50.886;6.468;2023-02-26T09:08:06;5.60;;;1.70;;
27305;SDS011;14792;50.886;6.468;2023-02-26T09:11:08;8.65;;;1.80;;
27305;SDS011;14792;50.886;6.468;2023-02-26T09:14:09;6.65;;;1.87;;
27305;SDS011;14792;50.886;6.468;2023-02-26T09:17:11;4.12;;;1.72;;
27305;SDS011;14792;50.886;6.468;2023-02-26T09:20:13;6.92;;;2.05;;
27305;SDS011;14792;50.886;6.468;2023-02-26T09:23:14;5.17;;;1.95;;
27305;SDS011;14792;50.886;6.468;2023-02-26T09:26:16;8.03;;;2.75;;
27305;SDS011;14792;50.886;6.468;2023-02-26T09:29:17;9.48;;;2.45;;
27305;SDS011;14792;50.886;6.468;2023-02-26T09:32:19;6.92;;;1.85;;
27305;SDS011;14792;50.886;6.468;2023-02-26T09:35:20;8.88;;;1.75;;
27305;SDS011;14792;50.886;6.468;2023-02-26T09:38:22;6.78;;;1.92;;
27305;SDS011;14792;50.886;6.468;2023-02-26T09:41:25;7.50;;;1.92;;
27305;SDS011;14792;50.886;6.468;2023-02-26T09:44:29;6.08;;;1.67;;
27305;SDS011;14792;50.886;6.468;2023-02-26T09:47:34;4.12;;;1.87;;
27305;SDS011;14792;50.886;6.468;2023-02-26T09:50:38;7.72;;;1.98;;
27305;SDS011;14792;50.886;6.468;2023-02-26T09:53:41;6.92;;;2.17;;
27305;SDS011;14792;50.886;6.468;2023-02-26T09:56:43;7.87;;;2.30;;
27305;SDS011;14792;50.886;6.468;2023-02-26T09:59:44;5.08;;;1.98;;
27305;SDS011;14792;50.886;6.468;2023-02-26T10:12:51;5.17;;;2.00;;
27305;SDS011;14792;50.886;6.468;2023-02-26T10:15:53;4.70;;;1.67;;
27305;SDS011;14792;50.886;6.468;2023-02-26T10:18:56;7.35;;;2.02;;
27305;SDS011;14792;50.886;6.468;2023-02-26T10:21:57;4.90;;;1.37;;
27305;SDS011;14792;50.886;6.468;2023-02-26T10:25:00;3.50;;;1.30;;
27305;SDS011;14792;50.886;6.468;2023-02-26T10:31:09;6.83;;;2.08;;
27305;SDS011;14792;50.886;6.468;2023-02-26T10:34:24;4.40;;;1.05;;
27305;SDS011;14792;50.886;6.468;2023-02-26T10:40:54;6.08;;;1.75;;
27305;SDS011;14792;50.886;6.468;2023-02-26T10:43:58;2.62;;;1.20;;
27305;SDS011;14792;50.886;6.468;2023-02-26T10:47:00;5.95;;;1.47;;
27305;SDS011;14792;50.886;6.468;2023-02-26T10:50:09;2.98;;;1.27;;
27305;SDS011;14792;50.886;6.468;2023-02-26T10:53:11;3.92;;;1.37;;
27305;SDS011;14792;50.886;6.468;2023-02-26T10:56:21;5.08;;;1.45;;
27305;SDS011;14792;50.886;6.468;2023-02-26T10:59:22;3.58;;;1.25;;
27305;SDS011;14792;50.886;6.468;2023-02-26T11:02:33;6.50;;;1.45;;
27305;SDS011;14792;50.886;6.468;2023-02-26T11:05:34;4.37;;;1.07;;
27305;SDS011;14792;50.886;6.468;2023-02-26T11:08:37;3.67;;;1.05;;
27305;SDS011;14792;50.886;6.468;2023-02-26T11:11:41;5.00;;;1.35;;
27305;SDS011;14792;50.886;6.468;2023-02-26T11:14:44;2.80;;;1.25;;
27305;SDS011;14792;50.886;6.468;2023-02-26T11:17:48;4.65;;;1.45;;
27305;SDS011;14792;50.886;6.468;2023-02-26T11:20:52;3.08;;;1.20;;
27305;SDS011;14792;50.886;6.468;2023-02-26T11:23:57;3.20;;;0.93;;
27305;SDS011;14792;50.886;6.468;2023-02-26T11:26:54;3.83;;;1.55;;
27305;SDS011;14792;50.886;6.468;2023-02-26T11:29:56;6.30;;;1.50;;
27305;SDS011;14792;50.886;6.468;2023-02-26T11:32:57;7.20;;;2.08;;
27305;SDS011;14792;50.886;6.468;2023-02-26T11:35:59;4.90;;;1.60;;
27305;SDS011;14792;50.886;6.468;2023-02-26T11:39:07;7.58;;;2.83;;
27305;SDS011;14792;50.886;6.468;2023-02-26T11:42:09;3.00;;;1.32;;
27305;SDS011;14792;50.886;6.468;2023-02-26T11:45:12;2.25;;;1.07;;
27305;SDS011;14792;50.886;6.468;2023-02-26T11:48:13;4.15;;;0.98;;
27305;SDS011;14792;50.886;6.468;2023-02-26T11:51:26;2.45;;;1.25;;
27305;SDS011;14792;50.886;6.468;2023-02-26T11:54:27;2.10;;;0.95;;
27305;SDS011;14792;50.886;6.468;2023-02-26T11:57:29;6.40;;;1.32;;
27305;SDS011;14792;50.886;6.468;2023-02-26T12:00:36;4.08;;;1.35;;
27305;SDS011;14792;50.886;6.468;2023-02-26T12:03:38;4.62;;;1.05;;
27305;SDS011;14792;50.886;6.468;2023-02-26T12:06:42;4.58;;;1.10;;
27305;SDS011;14792;50.886;6.468;2023-02-26T12:09:44;4.72;;;1.65;;
27305;SDS011;14792;50.886;6.468;2023-02-26T12:12:51;6.95;;;1.90;;
27305;SDS011;14792;50.886;6.468;2023-02-26T12:15:57;3.95;;;1.40;;
27305;SDS011;14792;50.886;6.468;2023-02-26T12:22:20;3.75;;;1.20;;
27305;SDS011;14792;50.886;6.468;2023-02-26T12:25:22;5.65;;;1.02;;
27305;SDS011;14792;50.886;6.468;2023-02-26T12:38:07;2.98;;;1.00;;
27305;SDS011;14792;50.886;6.468;2023-02-26T12:47:29;4.25;;;1.05;;
27305;SDS011;14792;50.886;6.468;2023-02-26T12:54:05;8.38;;;1.40;;
27305;SDS011;14792;50.886;6.468;2023-02-26T13:07:58;2.98;;;1.05;;
27305;SDS011;14792;50.886;6.468;2023-02-26T13:11:06;2.95;;;1.05;;
27305;SDS011;14792;50.886;6.468;2023-02-26T13:14:32;3.25;;;1.60;;
27305;SDS011;14792;50.886;6.468;2023-02-26T13:21:09;2.40;;;0.82;;
27305;SDS011;14792;50.886;6.468;2023-02-26T13:24:11;3.75;;;1.12;;
27305;SDS011;14792;50.886;6.468;2023-02-26T13:27:20;3.27;;;0.90;;
27305;SDS011;14792;50.886;6.468;2023-02-26T13:30:26;2.47;;;0.85;;
27305;SDS011;14792;50.886;6.468;2023-02-26T13:33:27;2.85;;;1.10;;
27305;SDS011;14792;50.886;6.468;2023-02-26T13:36:28;3.45;;;1.40;;
27305;SDS011;14792;50.886;6.468;2023-02-26T13:42:50;6.00;;;2.30;;
27305;SDS011;14792;50.886;6.468;2023-02-26T13:49:19;2.22;;;0.90;;
27305;SDS011;14792;50.886;6.468;2023-02-26T13:52:48;1.82;;;1.05;;
27305;SDS011;14792;50.886;6.468;2023-02-26T13:55:48;2.65;;;0.90;;
27305;SDS011;14792;50.886;6.468;2023-02-26T14:05:35;7.12;;;1.20;;
27305;SDS011;14792;50.886;6.468;2023-02-26T14:08:43;3.02;;;1.47;;
27305;SDS011;14792;50.886;6.468;2023-02-26T14:11:45;1.67;;;0.50;;
27305;SDS011;14792;50.886;6.468;2023-02-26T14:15:38;2.95;;;1.35;;
27305;SDS011;14792;50.886;6.468;2023-02-26T14:18:04;4.37;;;1.50;;
27305;SDS011;14792;50.886;6.468;2023-02-26T14:24:55;2.77;;;1.00;;
27305;SDS011;14792;50.886;6.468;2023-02-26T14:31:24;2.22;;;0.95;;
27305;SDS011;14792;50.886;6.468;2023-02-26T14:34:29;3.30;;;1.00;;
27305;SDS011;14792;50.886;6.468;2023-02-26T14:37:30;2.20;;;0.93;;
27305;SDS011;14792;50.886;6.468;2023-02-26T14:40:34;4.35;;;0.90;;
27305;SDS011;14792;50.886;6.468;2023-02-26T14:43:34;1.90;;;0.90;;
27305;SDS011;14792;50.886;6.468;2023-02-26T14:46:37;2.10;;;1.20;;
27305;SDS011;14792;50.886;6.468;2023-02-26T14:49:40;8.00;;;1.42;;
27305;SDS011;14792;50.886;6.468;2023-02-26T15:02:32;3.72;;;1.40;;
27305;SDS011;14792;50.886;6.468;2023-02-26T15:24:26;3.98;;;0.90;;
27305;SDS011;14792;50.886;6.468;2023-02-26T15:27:28;6.00;;;1.17;;
27305;SDS011;14792;50.886;6.468;2023-02-26T15:30:30;3.75;;;0.93;;
27305;SDS011;14792;50.886;6.468;2023-02-26T15:33:31;2.75;;;1.02;;
27305;SDS011;14792;50.886;6.468;2023-02-26T15:36:32;4.67;;;2.12;;
27305;SDS011;14792;50.886;6.468;2023-02-26T15:39:34;3.52;;;1.32;;
27305;SDS011;14792;50.886;6.468;2023-02-26T15:42:36;4.28;;;1.87;;
27305;SDS011;14792;50.886;6.468;2023-02-26T15:45:44;5.15;;;1.57;;
27305;SDS011;14792;50.886;6.468;2023-02-26T15:48:41;4.08;;;1.20;;
27305;SDS011;14792;50.886;6.468;2023-02-26T15:51:43;3.27;;;1.20;;
27305;SDS011;14792;50.886;6.468;2023-02-26T15:54:48;2.20;;;1.20;;
27305;SDS011;14792;50.886;6.468;2023-02-26T15:57:52;3.60;;;1.90;;
27305;SDS011;14792;50.886;6.468;2023-02-26T16:00:53;3.85;;;1.15;;
27305;SDS011;14792;50.886;6.468;2023-02-26T16:03:59;4.28;;;1.70;;
27305;SDS011;14792;50.886;6.468;2023-02-26T16:06:59;4.12;;;1.50;;
27305;SDS011;14792;50.886;6.468;2023-02-26T16:10:04;6.78;;;1.20;;
27305;SDS011;14792;50.886;6.468;2023-02-26T16:13:05;1.92;;;0.93;;
27305;SDS011;14792;50.886;6.468;2023-02-26T16:16:08;2.62;;;0.90;;
27305;SDS011;14792;50.886;6.468;2023-02-26T16:19:10;2.80;;;0.93;;
27305;SDS011;14792;50.886;6.468;2023-02-26T16:22:18;2.35;;;0.80;;
27305;SDS011;14792;50.886;6.468;2023-02-26T16:25:33;6.17;;;0.90;;
27305;SDS011;14792;50.886;6.468;2023-02-26T16:28:31;8.30;;;3.65;;
27305;SDS011;14792;50.886;6.468;2023-02-26T16:31:32;4.22;;;1.90;;
27305;SDS011;14792;50.886;6.468;2023-02-26T16:37:44;5.33;;;1.50;;
27305;SDS011;14792;50.886;6.468;2023-02-26T16:40:46;5.08;;;1.40;;
27305;SDS011;14792;50.886;6.468;2023-02-26T16:43:54;1.87;;;1.35;;
27305;SDS011;14792;50.886;6.468;2023-02-26T16:46:55;8.43;;;3.02;;
27305;SDS011;14792;50.886;6.468;2023-02-26T16:49:56;22.55;;;7.55;;
27305;SDS011;14792;50.886;6.468;2023-02-26T16:53:17;6.10;;;2.27;;
27305;SDS011;14792;50.886;6.468;2023-02-26T16:56:18;5.83;;;1.75;;
27305;SDS011;14792;50.886;6.468;2023-02-26T16:59:20;13.55;;;4.35;;
27305;SDS011;14792;50.886;6.468;2023-02-26T17:02:21;8.48;;;2.80;;
27305;SDS011;14792;50.886;6.468;2023-02-26T17:05:23;6.10;;;2.22;;
27305;SDS011;14792;50.886;6.468;2023-02-26T17:08:27;5.30;;;2.27;;
27305;SDS011;14792;50.886;6.468;2023-02-26T17:11:29;6.10;;;2.60;;
27305;SDS011;14792;50.886;6.468;2023-02-26T17:14:36;9.08;;;3.62;;
27305;SDS011;14792;50.886;6.468;2023-02-26T17:17:33;9.70;;;3.75;;
27305;SDS011;14792;50.886;6.468;2023-02-26T17:20:35;12.55;;;3.98;;
27305;SDS011;14792;50.886;6.468;2023-02-26T17:23:37;13.32;;;5.72;;
27305;SDS011;14792;50.886;6.468;2023-02-26T17:26:38;14.85;;;5.87;;
27305;SDS011;14792;50.886;6.468;2023-02-26T17:29:41;7.22;;;2.42;;
27305;SDS011;14792;50.886;6.468;2023-02-26T17:32:41;4.42;;;2.60;;
27305;SDS011;14792;50.886;6.468;2023-02-26T17:35:43;6.67;;;2.90;;
27305;SDS011;14792;50.886;6.468;2023-02-26T17:38:45;6.33;;;3.40;;
27305;SDS011;14792;50.886;6.468;2023-02-26T17:41:46;5.25;;;2.40;;
27305;SDS011;14792;50.886;6.468;2023-02-26T17:44:51;2.85;;;1.80;;
27305;SDS011;14792;50.886;6.468;2023-02-26T17:47:49;5.33;;;1.50;;
27305;SDS011;14792;50.886;6.468;2023-02-26T17:53:52;6.03;;;2.40;;
27305;SDS011;14792;50.886;6.468;2023-02-26T17:56:54;3.77;;;2.08;;
27305;SDS011;14792;50.886;6.468;2023-02-26T17:59:55;5.95;;;3.20;;
27305;SDS011;14792;50.886;6.468;2023-02-26T18:02:57;17.98;;;8.75;;
27305;SDS011;14792;50.886;6.468;2023-02-26T18:05:59;8.98;;;2.87;;
27305;SDS011;14792;50.886;6.468;2023-02-26T18:09:01;9.53;;;2.80;;
27305;SDS011;14792;50.886;6.468;2023-02-26T18:12:03;7.37;;;2.58;;
27305;SDS011;14792;50.886;6.468;2023-02-26T18:15:04;9.93;;;2.87;;
27305;SDS011;14792;50.886;6.468;2023-02-26T18:18:07;10.48;;;4.05;;
27305;SDS011;14792;50.886;6.468;2023-02-26T18:21:08;7.00;;;2.42;;
27305;SDS011;14792;50.886;6.468;2023-02-26T18:24:09;5.28;;;2.40;;
27305;SDS011;14792;50.886;6.468;2023-02-26T18:27:15;18.90;;;4.65;;
27305;SDS011;14792;50.886;6.468;2023-02-26T18:30:25;9.73;;;3.87;;
27305;SDS011;14792;50.886;6.468;2023-02-26T18:33:23;8.43;;;3.50;;
27305;SDS011;14792;50.886;6.468;2023-02-26T18:36:26;8.88;;;3.10;;
27305;SDS011;14792;50.886;6.468;2023-02-26T18:39:26;11.88;;;4.30;;
27305;SDS011;14792;50.886;6.468;2023-02-26T18:42:28;15.85;;;5.65;;
27305;SDS011;14792;50.886;6.468;2023-02-26T18:45:29;12.43;;;5.83;;
27305;SDS011;14792;50.886;6.468;2023-02-26T18:48:31;13.35;;;5.75;;
27305;SDS011;14792;50.886;6.468;2023-02-26T18:51:32;13.83;;;4.83;;
27305;SDS011;14792;50.886;6.468;2023-02-26T18:54:34;18.45;;;8.75;;
27305;SDS011;14792;50.886;6.468;2023-02-26T18:57:36;18.92;;;8.08;;
27305;SDS011;14792;50.886;6.468;2023-02-26T19:00:37;16.25;;;8.05;;
27305;SDS011;14792;50.886;6.468;2023-02-26T19:03:39;12.25;;;6.08;;
27305;SDS011;14792;50.886;6.468;2023-02-26T19:06:41;11.10;;;4.50;;
27305;SDS011;14792;50.886;6.468;2023-02-26T19:09:42;12.85;;;5.50;;
27305;SDS011;14792;50.886;6.468;2023-02-26T19:12:44;9.18;;;4.33;;
27305;SDS011;14792;50.886;6.468;2023-02-26T19:15:45;9.98;;;4.25;;
27305;SDS011;14792;50.886;6.468;2023-02-26T19:18:47;9.35;;;3.67;;
27305;SDS011;14792;50.886;6.468;2023-02-26T19:21:49;5.92;;;3.35;;
27305;SDS011;14792;50.886;6.468;2023-02-26T19:24:50;7.10;;;2.90;;
27305;SDS011;14792;50.886;6.468;2023-02-26T19:27:52;9.15;;;3.40;;
27305;SDS011;14792;50.886;6.468;2023-02-26T19:30:53;12.53;;;3.87;;
27305;SDS011;14792;50.886;6.468;2023-02-26T19:33:55;5.75;;;2.95;;
27305;SDS011;14792;50.886;6.468;2023-02-26T19:36:56;16.07;;;6.97;;
27305;SDS011;14792;50.886;6.468;2023-02-26T19:39:58;26.20;;;8.28;;
27305;SDS011;14792;50.886;6.468;2023-02-26T19:43:00;29.42;;;8.68;;
27305;SDS011;14792;50.886;6.468;2023-02-26T19:46:01;14.60;;;6.10;;
27305;SDS011;14792;50.886;6.468;2023-02-26T19:49:03;17.65;;;8.30;;
27305;SDS011;14792;50.886;6.468;2023-02-26T19:52:04;13.75;;;5.92;;
27305;SDS011;14792;50.886;6.468;2023-02-26T19:55:06;25.17;;;10.58;;
27305;SDS011;14792;50.886;6.468;2023-02-26T19:58:08;23.15;;;7.58;;
27305;SDS011;14792;50.886;6.468;2023-02-26T20:01:09;23.38;;;4.87;;
27305;SDS011;14792;50.886;6.468;2023-02-26T20:04:11;20.55;;;6.47;;
27305;SDS011;14792;50.886;6.468;2023-02-26T20:07:12;24.95;;;7.50;;
27305;SDS011;14792;50.886;6.468;2023-02-26T20:10:14;29.63;;;10.48;;
27305;SDS011;14792;50.886;6.468;2023-02-26T20:13:16;21.73;;;7.87;;
27305;SDS011;14792;50.886;6.468;2023-02-26T20:16:17;18.98;;;6.70;;
27305;SDS011;14792;50.886;6.468;2023-02-26T20:19:19;15.58;;;6.58;;
27305;SDS011;14792;50.886;6.468;2023-02-26T20:22:20;15.93;;;6.20;;
27305;SDS011;14792;50.886;6.468;2023-02-26T20:25:22;18.37;;;6.80;;
27305;SDS011;14792;50.886;6.468;2023-02-26T20:28:24;11.12;;;5.47;;
27305;SDS011;14792;50.886;6.468;2023-02-26T20:31:25;12.00;;;5.78;;